Main page
METAR-TAF:

METAR-TAF

Airports :

Kulob Airport

Kulob, Tajikistan

latitude: 37-59-18N, longitude: 069-48-18E, elevation: 699 m

Current weather observation

The report was made 26 minutes ago, at 01:30 UTC
Wind 4 kt from the North
Temperature 8°C
Humidity 93%
Pressure 1023 hPa
Visibility: 8000 m

METAR: UTDK 190130Z 01002MPS 8000 NSC 08/07 Q1023 R01/19//60 RMK QFE709/0945

Time: 06:56 (01:56 UTC)

Forecast

The report was made 1 hour and 56 minutes ago, at 00:00 UTC
Forecast valid from 19 at 01 UTC to 19 at 10 UTC
Wind 4 kt from variable directions
Visibility: 3100 m
Scattered clouds at a height of 5000 ft, Cumulonimbus.
Broken clouds at a height of 10000 ft
mist

TAF: UTDK 190000Z 1901/1910 VRB02MPS 3100 BR SCT050CB BKN100

Weather observations and forecasts of more than 4000 airports (METAR and TAF reports).

The available stations are represented by yellow and red dots on the map.

Hover mouse over dot to see the name of the station.

Then click to see weather observations and forecasts.

To change the map : click on the green buttons with a black cross to zoom in, on the green button with a dash to zoom out, or on the green arrows for adjacent maps.


METAR-TAF: